Time;durP1;ratioP1;P1;durP2;ratioP2;P2;SDS_P1;SDS_P2;PMS_P1;PMS_P2;Temp;Humidity;BMP_temperature;BMP_pressure;BME280_temperature;BME280_humidity;BME280_pressure;Samples;Min_cycle;Max_cycle;Signal;HPM_P1;HPM_P2
2022/05/20 00:01:03;;;;;;;11.33;6.10;;;14.50;99.90;;;;;;5092948;28;20052;-73
2022/05/20 00:03:31;;;;;;;11.07;6.23;;;14.50;99.90;;;;;;5093147;28;20277;-73
2022/05/20 00:05:58;;;;;;;11.93;6.73;;;14.50;99.90;;;;;;5092735;28;20365;-73
2022/05/20 00:08:23;;;;;;;10.70;6.77;;;14.50;99.90;;;;;;5093193;28;20361;-73
2022/05/20 00:10:53;;;;;;;10.00;6.47;;;14.60;99.90;;;;;;5091955;28;20321;-74
2022/05/20 00:13:21;;;;;;;13.87;7.77;;;14.50;99.90;;;;;;5093187;28;20048;-74
2022/05/20 00:15:47;;;;;;;11.67;7.87;;;14.50;99.90;;;;;;5092986;28;20051;-75
2022/05/20 00:18:13;;;;;;;10.00;6.20;;;14.50;99.90;;;;;;5092767;28;20052;-74
2022/05/20 00:20:38;;;;;;;14.23;6.97;;;14.50;99.90;;;;;;5091800;28;20309;-72
2022/05/20 00:23:04;;;;;;;14.60;8.00;;;14.40;99.90;;;;;;5092597;28;20108;-74
2022/05/20 00:25:48;;;;;;;14.70;9.17;;;14.40;99.90;;;;;;5091784;28;20051;-73
2022/05/20 00:28:19;;;;;;;14.80;8.63;;;14.40;99.90;;;;;;5091764;28;20039;-73
2022/05/20 00:30:54;;;;;;;14.90;7.60;;;14.30;99.90;;;;;;5092882;28;20043;-73
2022/05/20 00:33:20;;;;;;;;;;;14.20;99.90;;;;;;5096400;28;20266;-73
2022/05/20 00:35:46;;;;;;;16.73;8.77;;;14.20;99.90;;;;;;5096886;28;20341;-73
2022/05/20 00:38:13;;;;;;;13.10;9.33;;;14.20;99.90;;;;;;5078980;28;20048;-73
2022/05/20 00:40:39;;;;;;;12.87;8.13;;;14.20;99.90;;;;;;5096730;28;20528;-73
2022/05/20 00:43:22;;;;;;;12.67;9.23;;;14.20;99.90;;;;;;5096728;28;20281;-74
2022/05/20 00:45:48;;;;;;;15.33;8.60;;;14.20;99.90;;;;;;5096785;28;20285;-73
2022/05/20 00:48:14;;;;;;;15.77;9.37;;;14.20;99.90;;;;;;5096499;28;20282;-73
2022/05/20 00:50:46;;;;;;;14.70;9.40;;;14.20;99.90;;;;;;5096641;28;20098;-73
2022/05/20 00:53:14;;;;;;;12.20;8.67;;;14.20;99.90;;;;;;5096685;28;20044;-73
2022/05/20 00:55:42;;;;;;;13.23;8.53;;;14.20;99.90;;;;;;5096465;28;20860;-73
2022/05/20 00:58:13;;;;;;;12.83;8.90;;;14.20;99.90;;;;;;5095028;28;20373;-73
2022/05/20 01:00:44;;;;;;;14.47;9.27;;;14.20;99.90;;;;;;5096385;28;20039;-73
2022/05/20 01:03:11;;;;;;;12.77;8.67;;;14.20;99.90;;;;;;5096060;28;20285;-73
2022/05/20 01:05:46;;;;;;;10.47;7.40;;;14.20;99.90;;;;;;5095530;28;20281;-73
2022/05/20 01:08:16;;;;;;;13.07;8.75;;;14.10;99.90;;;;;;5096477;28;20361;-73
2022/05/20 01:10:42;;;;;;;13.20;7.67;;;14.20;99.90;;;;;;5096485;28;20080;-73
2022/05/20 01:13:09;;;;;;;12.93;7.77;;;14.10;99.90;;;;;;5096030;28;20336;-73
2022/05/20 01:15:35;;;;;;;11.77;7.87;;;14.10;99.90;;;;;;5096175;28;20040;-73
2022/05/20 01:18:01;;;;;;;12.70;7.80;;;14.10;99.90;;;;;;5096059;28;20625;-73
2022/05/20 01:20:30;;;;;;;13.10;7.23;;;14.10;99.90;;;;;;5096145;28;20097;-73
2022/05/20 01:22:58;;;;;;;11.60;7.63;;;14.20;99.90;;;;;;5096144;28;20087;-73
2022/05/20 01:25:26;;;;;;;12.07;7.83;;;14.10;99.90;;;;;;5095736;28;20318;-73
2022/05/20 01:27:52;;;;;;;11.13;7.60;;;14.20;99.90;;;;;;5096006;28;20274;-73
2022/05/20 01:30:22;;;;;;;14.07;8.00;;;14.10;99.90;;;;;;5095578;28;20300;-73
2022/05/20 01:32:48;;;;;;;11.10;7.57;;;14.20;99.90;;;;;;5096043;28;20094;-73
2022/05/20 01:35:39;;;;;;;12.67;7.87;;;14.20;99.90;;;;;;5095519;28;20665;-73
2022/05/20 01:38:06;;;;;;;11.23;8.40;;;14.20;99.90;;;;;;5095580;28;20051;-74
2022/05/20 01:41:04;;;;;;;10.37;8.33;;;14.10;99.90;;;;;;5095477;28;20293;-73
2022/05/20 01:43:59;;;;;;;12.90;8.67;;;14.10;99.90;;;;;;5094162;28;20332;-73
2022/05/20 01:47:02;;;;;;;12.20;8.18;;;14.10;99.90;;;;;;5095376;28;20270;-73
2022/05/20 01:50:05;;;;;;;12.60;9.87;;;14.10;99.90;;;;;;5092142;28;20495;-73
2022/05/20 01:52:40;;;;;;;13.97;9.07;;;14.10;99.90;;;;;;5095627;28;20297;-73
2022/05/20 01:55:17;;;;;;;;;;;14.10;99.90;;;;;;5094545;28;20313;-74
2022/05/20 01:57:48;;;;;;;12.43;9.17;;;14.00;99.90;;;;;;5095588;28;19967;-74
2022/05/20 02:00:20;;;;;;;12.93;9.87;;;14.00;99.90;;;;;;5095313;28;20305;-74
2022/05/20 02:02:52;;;;;;;13.67;9.77;;;14.00;99.90;;;;;;5095485;28;20328;-74
2022/05/20 02:05:53;;;;;;;15.20;10.07;;;14.00;99.90;;;;;;5094979;28;20774;-74
2022/05/20 02:08:37;;;;;;;16.40;10.00;;;14.00;99.90;;;;;;5088964;28;20294;-74
2022/05/20 02:11:18;;;;;;;14.70;9.37;;;13.90;99.90;;;;;;5095433;28;20277;-74
2022/05/20 02:13:51;;;;;;;11.87;9.70;;;13.90;99.90;;;;;;5095262;28;20357;-74
2022/05/20 02:16:36;;;;;;;12.67;9.47;;;13.90;99.90;;;;;;5095007;28;20353;-74
2022/05/20 02:19:08;;;;;;;12.77;9.95;;;13.90;99.90;;;;;;5095285;28;20273;-74
2022/05/20 02:21:38;;;;;;;13.33;9.40;;;13.80;99.90;;;;;;5093700;28;20040;-74
2022/05/20 02:24:08;;;;;;;15.90;9.77;;;13.80;99.90;;;;;;5095012;28;20321;-73
2022/05/20 02:26:42;;;;;;;14.10;10.57;;;13.80;99.90;;;;;;5094815;28;20271;-74
2022/05/20 02:29:17;;;;;;;16.50;10.07;;;13.80;99.90;;;;;;5094986;28;20296;-74
2022/05/20 02:31:59;;;;;;;13.80;9.87;;;13.90;99.90;;;;;;5094928;28;20277;-74
2022/05/20 02:34:25;;;;;;;11.87;8.80;;;13.90;99.90;;;;;;5093393;28;20324;-73
2022/05/20 02:36:51;;;;;;;15.57;11.00;;;13.90;99.90;;;;;;5094566;28;20282;-73
2022/05/20 02:39:16;;;;;;;14.23;10.03;;;13.80;99.90;;;;;;5094276;28;20351;-74
2022/05/20 02:41:44;;;;;;;16.93;10.03;;;13.80;99.90;;;;;;5093206;28;20080;-73
2022/05/20 02:44:10;;;;;;;15.37;10.40;;;13.80;99.90;;;;;;5094354;28;20105;-75
2022/05/20 02:46:37;;;;;;;14.43;10.60;;;13.80;99.90;;;;;;5093544;28;20294;-74
2022/05/20 02:49:03;;;;;;;13.20;10.67;;;13.80;99.90;;;;;;5094474;28;20048;-73
2022/05/20 02:51:29;;;;;;;16.37;10.90;;;13.80;99.90;;;;;;5093802;28;20335;-73
2022/05/20 02:53:55;;;;;;;12.17;9.70;;;;;;;;;;5094505;28;20483;-73
2022/05/20 02:56:21;;;;;;;12.73;9.87;;;;;;;;;;5093233;28;20513;-73
2022/05/20 03:04:16;;;;;;;14.02;10.70;;;;;;;;;;5094105;28;20060;-74
2022/05/20 03:06:54;;;;;;;14.73;11.10;;;13.60;99.90;;;;;;5094220;28;20044;-73
2022/05/20 03:09:23;;;;;;;13.70;11.13;;;13.50;99.90;;;;;;5093942;28;20266;-73
2022/05/20 03:11:49;;;;;;;18.20;11.80;;;13.50;99.90;;;;;;5093892;28;20358;-73
2022/05/20 03:14:19;;;;;;;14.60;11.47;;;13.40;99.90;;;;;;5092688;28;20321;-74
2022/05/20 03:16:45;;;;;;;14.90;10.47;;;13.40;99.90;;;;;;5094059;28;20368;-73
2022/05/20 03:19:12;;;;;;;13.37;10.63;;;13.40;99.90;;;;;;5093979;28;20282;-73
2022/05/20 03:21:39;;;;;;;13.83;10.90;;;13.30;99.90;;;;;;5093601;28;20301;-73
2022/05/20 03:24:06;;;;;;;15.27;10.97;;;13.30;99.90;;;;;;5094028;28;20625;-73
2022/05/20 03:26:32;;;;;;;13.90;11.23;;;13.30;99.90;;;;;;5093257;28;20339;-73
2022/05/20 03:28:59;;;;;;;13.80;11.07;;;13.30;99.90;;;;;;5093531;28;20364;-73
2022/05/20 03:31:26;;;;;;;15.30;11.80;;;13.20;99.90;;;;;;5093164;28;20788;-74
2022/05/20 03:33:52;;;;;;;15.20;11.60;;;13.30;99.90;;;;;;5126884;27;20290;-73
2022/05/20 03:36:19;;;;;;;15.03;12.17;;;13.20;99.90;;;;;;5093231;28;20322;-73
2022/05/20 03:38:45;;;;;;;14.67;12.03;;;13.20;99.90;;;;;;5093401;28;20808;-73
2022/05/20 03:41:11;;;;;;;15.97;12.30;;;13.20;99.90;;;;;;5093225;28;20298;-73
2022/05/20 03:43:37;;;;;;;16.13;12.17;;;13.10;99.90;;;;;;5093034;28;20094;-73
2022/05/20 03:46:04;;;;;;;17.40;11.73;;;13.10;99.90;;;;;;5093462;28;20290;-74
2022/05/20 03:48:30;;;;;;;16.10;12.00;;;13.20;99.90;;;;;;5093161;28;20446;-73
2022/05/20 03:50:56;;;;;;;15.60;13.70;;;13.20;99.90;;;;;;5092410;28;20381;-73
2022/05/20 03:53:22;;;;;;;17.70;12.43;;;13.20;99.90;;;;;;5092982;28;20318;-74
2022/05/20 03:55:47;;;;;;;14.27;11.87;;;13.20;99.90;;;;;;5093282;28;20788;-73
2022/05/20 03:58:14;;;;;;;14.93;12.70;;;13.20;99.90;;;;;;5093068;28;20405;-73
2022/05/20 04:03:24;;;;;;;15.70;12.85;;;13.20;99.90;;;;;;5091845;28;20282;-73
2022/05/20 04:05:51;;;;;;;13.90;11.57;;;13.20;99.90;;;;;;5091972;28;20048;-73
2022/05/20 04:08:19;;;;;;;17.30;12.47;;;13.20;99.90;;;;;;5093011;28;20347;-73
2022/05/20 04:10:45;;;;;;;15.77;12.23;;;13.20;99.90;;;;;;5092921;28;20657;-73
2022/05/20 04:13:11;;;;;;;16.77;12.33;;;13.20;99.90;;;;;;5093096;28;20290;-73
2022/05/20 04:15:37;;;;;;;16.20;12.80;;;13.20;99.90;;;;;;5092747;28;20347;-73
2022/05/20 04:18:02;;;;;;;13.97;12.20;;;13.20;99.90;;;;;;5091847;28;20044;-73
2022/05/20 04:20:28;;;;;;;16.53;13.20;;;13.20;99.90;;;;;;5092570;28;20050;-73
2022/05/20 04:22:54;;;;;;;14.17;12.70;;;13.20;99.90;;;;;;5092865;28;20098;-73
2022/05/20 04:25:20;;;;;;;16.03;13.17;;;13.10;99.90;;;;;;5092639;28;20048;-73
2022/05/20 04:27:45;;;;;;;13.67;12.30;;;13.10;99.90;;;;;;5092649;28;20048;-73
2022/05/20 04:30:13;;;;;;;15.97;13.27;;;13.10;99.90;;;;;;5092928;28;20047;-73
2022/05/20 04:32:39;;;;;;;15.57;13.03;;;13.10;99.90;;;;;;5091592;28;20097;-73
2022/05/20 04:35:05;;;;;;;13.63;12.23;;;13.10;99.90;;;;;;5092788;28;20328;-73
2022/05/20 04:37:31;;;;;;;17.40;12.97;;;13.10;99.90;;;;;;5092415;28;20040;-73
2022/05/20 04:39:57;;;;;;;17.53;13.63;;;13.10;99.90;;;;;;5092302;28;20273;-73
2022/05/20 04:47:51;;;;;;;15.50;13.07;;;13.10;99.90;;;;;;5092789;28;20343;-73
2022/05/20 04:50:17;;;;;;;15.97;13.23;;;13.10;99.90;;;;;;5092461;28;20048;-73
2022/05/20 04:52:43;;;;;;;16.23;14.53;;;13.20;99.90;;;;;;5091219;28;20186;-73
2022/05/20 04:55:09;;;;;;;15.57;13.57;;;13.20;99.90;;;;;;5092765;28;20506;-73
2022/05/20 04:57:40;;;;;;;14.60;13.00;;;13.30;99.90;;;;;;5092397;28;20039;-74
2022/05/20 05:00:11;;;;;;;16.20;14.53;;;13.30;99.90;;;;;;5092517;28;20286;-74
2022/05/20 05:02:37;;;;;;;15.57;13.37;;;13.40;99.90;;;;;;5092195;28;20347;-74
2022/05/20 05:05:04;;;;;;;15.83;14.07;;;13.40;99.90;;;;;;5092300;28;20274;-74
2022/05/20 05:07:30;;;;;;;14.77;13.27;;;13.50;99.90;;;;;;5092347;28;20294;-74
2022/05/20 05:09:56;;;;;;;17.90;15.40;;;13.60;99.90;;;;;;5092530;28;20284;-74
2022/05/20 05:12:23;;;;;;;15.83;14.03;;;13.80;99.90;;;;;;5092438;28;20040;-74
2022/05/20 05:14:52;;;;;;;17.37;13.73;;;13.90;99.90;;;;;;5092076;28;20048;-73
2022/05/20 05:20:07;;;;;;;20.53;15.57;;;14.00;99.90;;;;;;5096448;28;20285;-74
2022/05/20 05:22:33;;;;;;;17.57;14.53;;;14.20;99.90;;;;;;5095856;28;20796;-74
2022/05/20 05:24:58;;;;;;;19.23;13.70;;;14.30;99.90;;;;;;5096224;28;20278;-74
2022/05/20 05:27:25;;;;;;;14.27;12.73;;;14.40;99.90;;;;;;5096060;28;20476;-74
2022/05/20 05:29:50;;;;;;;15.63;12.73;;;14.50;99.90;;;;;;5095718;28;20044;-74
2022/05/20 05:32:16;;;;;;;18.43;13.83;;;14.60;99.90;;;;;;5095907;28;20280;-74
2022/05/20 05:34:42;;;;;;;15.80;12.80;;;14.80;99.90;;;;;;5095749;28;20086;-74
2022/05/20 05:37:10;;;;;;;17.50;14.53;;;14.90;99.90;;;;;;5094944;28;20138;-74
2022/05/20 05:39:36;;;;;;;17.43;13.90;;;14.90;99.90;;;;;;5094607;28;20100;-74
2022/05/20 05:42:02;;;;;;;15.60;12.80;;;15.00;99.90;;;;;;5094329;28;20491;-74
2022/05/20 05:44:28;;;;;;;17.30;12.00;;;15.20;99.90;;;;;;5095766;28;20310;-74
2022/05/20 05:46:54;;;;;;;18.03;12.07;;;15.60;99.90;;;;;;5095287;28;20083;-74
2022/05/20 05:49:19;;;;;;;12.33;9.93;;;16.60;99.90;;;;;;5095971;28;20043;-72
2022/05/20 05:51:45;;;;;;;12.70;9.87;;;17.90;99.90;;;;;;5095416;28;20404;-72
2022/05/20 05:54:11;;;;;;;13.97;9.00;;;19.20;99.90;;;;;;5095591;28;20039;-72
2022/05/20 05:56:37;;;;;;;16.17;8.43;;;20.40;99.90;;;;;;5095188;28;20048;-72
2022/05/20 05:59:04;;;;;;;15.40;7.20;;;;;;;;;;5095304;28;20048;-72
2022/05/20 06:01:30;;;;;;;12.63;7.07;;;21.90;99.90;;;;;;5095180;28;20408;-72
2022/05/20 06:03:56;;;;;;;11.83;6.20;;;;;;;;;;5093941;28;20051;-72
2022/05/20 06:06:22;;;;;;;13.03;7.13;;;;;;;;;;5095569;28;20044;-72
2022/05/20 06:08:48;;;;;;;9.13;4.80;;;22.60;99.90;;;;;;5093883;28;20044;-72
2022/05/20 06:11:14;;;;;;;10.00;4.20;;;23.20;97.90;;;;;;5095327;28;20044;-72
2022/05/20 06:13:41;;;;;;;10.60;5.00;;;;;;;;;;5094769;28;20089;-72
2022/05/20 06:16:07;;;;;;;10.00;5.70;;;;;;;;;;5095239;28;20039;-73
2022/05/20 06:18:32;;;;;;;9.57;3.77;;;24.00;83.20;;;;;;5077279;28;20417;-73
2022/05/20 06:20:59;;;;;;;10.33;3.43;;;23.90;76.00;;;;;;5094876;28;20123;-73
2022/05/20 06:23:24;;;;;;;8.57;3.50;;;22.60;73.90;;;;;;5095019;28;20093;-73
2022/05/20 06:25:51;;;;;;;10.93;4.50;;;22.60;76.70;;;;;;5094712;28;20052;-73
2022/05/20 06:28:19;;;;;;;10.50;3.90;;;21.80;80.80;;;;;;5094815;28;20055;-73
2022/05/20 06:30:45;;;;;;;10.87;4.07;;;21.00;83.00;;;;;;5092256;28;20059;-73
2022/05/20 06:33:12;;;;;;;14.63;5.70;;;20.50;92.50;;;;;;5095160;28;20127;-73
2022/05/20 06:41:08;;;;;;;14.02;5.18;;;20.30;98.40;;;;;;5094126;28;20491;-75
2022/05/20 06:43:34;;;;;;;14.67;4.73;;;20.70;96.50;;;;;;5076917;28;20532;-75
2022/05/20 06:46:02;;;;;;;7.87;4.03;;;21.50;94.50;;;;;;5094418;28;20075;-75
2022/05/20 06:48:49;;;;;;;10.03;4.43;;;22.20;89.70;;;;;;5094463;28;20492;-75
2022/05/20 06:51:29;;;;;;;10.10;4.63;;;22.40;80.10;;;;;;5094385;28;20047;-75
2022/05/20 06:53:59;;;;;;;10.70;4.50;;;22.70;81.30;;;;;;5094528;28;20050;-75
2022/05/20 06:56:30;;;;;;;9.10;4.20;;;23.30;77.40;;;;;;5094398;28;20048;-76
2022/05/20 06:58:58;;;;;;;9.37;4.50;;;23.80;70.90;;;;;;5094037;28;20051;-73
2022/05/20 07:01:24;;;;;;;9.23;4.60;;;23.90;67.60;;;;;;5094175;28;20040;-73
2022/05/20 07:03:49;;;;;;;11.03;4.47;;;24.00;65.20;;;;;;5093868;28;20399;-74
2022/05/20 07:06:16;;;;;;;11.80;4.87;;;24.60;65.10;;;;;;5094366;28;20040;-75
2022/05/20 07:08:48;;;;;;;12.30;4.77;;;25.00;63.90;;;;;;5093984;28;20051;-74
2022/05/20 07:11:14;;;;;;;10.37;4.27;;;;;;;;;;5094159;28;20159;-74
2022/05/20 07:13:40;;;;;;;10.83;3.53;;;;;;;;;;5094038;28;20108;-74
2022/05/20 07:16:07;;;;;;;7.60;3.17;;;;;;;;;;5092943;28;20099;-75
2022/05/20 07:18:34;;;;;;;10.07;4.00;;;;;;;;;;5092977;28;20086;-74
2022/05/20 07:21:01;;;;;;;10.30;4.93;;;;;;;;;;5092445;28;20051;-74
2022/05/20 07:23:29;;;;;;;9.13;4.67;;;;;;;;;;5093740;28;20408;-74
2022/05/20 07:25:55;;;;;;;11.30;4.40;;;27.30;46.60;;;;;;5092595;28;20123;-74
2022/05/20 07:28:22;;;;;;;8.88;4.13;;;;;;;;;;5093798;28;20181;-74
2022/05/20 07:30:48;;;;;;;7.93;3.92;;;;;;;;;;5093373;28;20070;-74
2022/05/20 07:33:14;;;;;;;11.85;4.75;;;;;;;;;;5092449;28;20458;-74
2022/05/20 07:35:40;;;;;;;9.88;4.53;;;;;;;;;;5093739;28;20051;-74
2022/05/20 07:38:07;;;;;;;10.60;4.40;;;;;;;;;;5092537;28;20040;-74
2022/05/20 07:40:33;;;;;;;10.07;4.75;;;27.70;44.70;;;;;;5092999;28;20499;-74
2022/05/20 07:42:59;;;;;;;8.00;4.05;;;27.70;47.00;;;;;;5091895;28;20140;-74
2022/05/20 07:45:25;;;;;;;8.38;3.95;;;27.50;47.80;;;;;;5093311;28;20540;-74
2022/05/20 07:47:51;;;;;;;9.60;3.97;;;27.70;47.30;;;;;;5092316;28;20052;-74
2022/05/20 07:50:17;;;;;;;8.45;3.65;;;27.90;46.80;;;;;;5093442;28;20444;-74
2022/05/20 07:55:38;;;;;;;7.85;3.60;;;27.30;46.50;;;;;;5093242;28;20098;-74
2022/05/20 07:58:07;;;;;;;9.07;3.53;;;26.90;63.00;;;;;;5092926;28;20172;-74
2022/05/20 08:00:34;;;;;;;7.13;3.65;;;;;;;;;;5093310;28;20431;-74
2022/05/20 08:03:01;;;;;;;10.02;4.28;;;25.40;48.00;;;;;;5093068;28;20131;-74
2022/05/20 08:05:29;;;;;;;10.20;3.95;;;25.10;73.40;;;;;;5093418;28;20039;-75
2022/05/20 08:08:02;;;;;;;8.23;4.22;;;23.80;51.30;;;;;;5091865;28;20128;-75
2022/05/20 08:10:31;;;;;;;7.82;4.10;;;23.50;52.00;;;;;;5092952;28;20055;-75
2022/05/20 08:12:57;;;;;;;8.50;4.20;;;23.50;52.80;;;;;;5092209;28;20047;-75
2022/05/20 08:15:24;;;;;;;8.73;4.30;;;23.20;54.20;;;;;;5092644;28;20445;-74
2022/05/20 08:17:50;;;;;;;9.47;4.20;;;23.00;54.70;;;;;;5092253;28;20082;-75
2022/05/20 08:20:25;;;;;;;8.17;4.10;;;22.80;55.70;;;;;;5092493;28;20040;-74
2022/05/20 08:22:52;;;;;;;9.30;3.60;;;22.70;57.20;;;;;;5090899;28;20048;-74
2022/05/20 08:25:19;;;;;;;11.53;4.87;;;22.70;58.50;;;;;;5092884;28;20131;-74
2022/05/20 08:27:45;;;;;;;8.10;3.77;;;22.80;58.50;;;;;;5091753;28;20040;-74
2022/05/20 08:30:16;;;;;;;8.67;4.43;;;22.70;57.60;;;;;;5092573;28;20051;-74
2022/05/20 08:32:43;;;;;;;10.27;4.20;;;;;;;;;;5093063;28;20032;-72
2022/05/20 08:35:10;;;;;;;9.70;3.80;;;22.30;57.90;;;;;;5092541;28;20044;-72
2022/05/20 08:37:40;;;;;;;9.20;4.17;;;22.10;59.20;;;;;;5091695;28;20124;-74
2022/05/20 08:40:29;;;;;;;9.77;3.90;;;22.10;60.10;;;;;;5074917;28;20056;-74
2022/05/20 08:42:58;;;;;;;10.90;4.00;;;22.00;59.60;;;;;;5092816;28;20087;-75
2022/05/20 08:45:27;;;;;;;8.07;4.30;;;21.70;61.10;;;;;;5092648;28;20105;-75
2022/05/20 08:47:53;;;;;;;7.90;3.87;;;21.70;61.30;;;;;;5091574;28;20135;-74
2022/05/20 08:50:21;;;;;;;7.10;3.73;;;21.80;62.00;;;;;;5092625;28;20056;-75
2022/05/20 08:52:50;;;;;;;8.20;4.00;;;21.80;62.70;;;;;;5093219;28;20063;-74
2022/05/20 08:55:16;;;;;;;10.20;4.17;;;21.90;62.70;;;;;;5079048;28;20052;-73
2022/05/20 08:57:49;;;;;;;9.57;3.80;;;21.70;61.30;;;;;;5096864;28;20051;-74
2022/05/20 09:00:16;;;;;;;8.70;3.67;;;21.70;61.40;;;;;;5095546;28;20155;-75
2022/05/20 09:02:42;;;;;;;7.37;4.03;;;21.80;62.70;;;;;;5096561;28;20101;-75
2022/05/20 09:05:15;;;;;;;8.00;3.63;;;21.80;61.80;;;;;;5096441;28;20044;-75
2022/05/20 09:08:21;;;;;;;10.47;3.70;;;21.60;60.60;;;;;;5095883;28;20184;-76
2022/05/20 09:10:49;;;;;;;6.87;3.80;;;21.50;61.50;;;;;;5083826;28;20048;-73
2022/05/20 09:16:15;;;;;;;14.90;3.90;;;21.70;62.30;;;;;;5096137;28;20484;-73
2022/05/20 09:19:02;;;;;;;8.27;3.70;;;21.70;62.30;;;;;;5095250;28;20044;-72
2022/05/20 09:21:32;;;;;;;9.80;3.87;;;21.70;60.40;;;;;;5095536;28;20052;-73
2022/05/20 09:24:03;;;;;;;9.77;4.30;;;21.50;60.40;;;;;;5095974;28;20445;-73
2022/05/20 09:26:41;;;;;;;10.53;4.73;;;21.40;59.40;;;;;;5096190;28;20043;-73
2022/05/20 09:29:12;;;;;;;8.20;4.00;;;21.30;60.90;;;;;;5095755;28;20134;-74
2022/05/20 09:31:48;;;;;;;7.73;3.63;;;21.20;61.80;;;;;;5094961;28;20048;-73
2022/05/20 09:34:24;;;;;;;8.00;3.60;;;21.10;62.10;;;;;;5095621;28;20506;-72
2022/05/20 09:36:58;;;;;;;7.10;3.80;;;21.00;63.10;;;;;;5095005;28;20131;-74
2022/05/20 09:39:34;;;;;;;9.47;3.80;;;21.00;62.70;;;;;;5078446;28;20442;-75
2022/05/20 09:42:09;;;;;;;9.07;3.70;;;21.00;64.20;;;;;;5095672;28;20504;-72
2022/05/20 09:44:41;;;;;;;8.00;3.23;;;21.00;64.10;;;;;;5095920;28;20087;-72
2022/05/20 09:47:24;;;;;;;7.57;3.57;;;21.00;63.00;;;;;;5095616;28;20044;-74
2022/05/20 09:49:55;;;;;;;8.10;3.87;;;20.90;61.00;;;;;;5095876;28;20097;-73
2022/05/20 09:52:30;;;;;;;8.17;3.80;;;20.80;63.40;;;;;;5095435;28;20043;-76
2022/05/20 09:55:04;;;;;;;8.27;4.00;;;20.70;64.00;;;;;;5095434;28;20388;-76
2022/05/20 09:57:40;;;;;;;10.25;4.10;;;20.50;64.90;;;;;;5094814;28;20423;-76
2022/05/20 10:00:17;;;;;;;8.20;4.07;;;20.50;65.70;;;;;;5077507;28;20048;-73
2022/05/20 10:03:06;;;;;;;8.50;3.70;;;20.40;66.60;;;;;;5094150;28;20075;-73
2022/05/20 10:06:11;;;;;;;9.00;4.03;;;20.40;67.70;;;;;;5095287;28;20040;-74
2022/05/20 10:08:46;;;;;;;8.77;3.23;;;20.30;66.80;;;;;;5093985;28;20550;-72
2022/05/20 10:11:29;;;;;;;6.63;3.33;;;20.30;67.10;;;;;;5095027;28;20048;-72
2022/05/20 10:14:19;;;;;;;9.23;3.97;;;20.20;65.20;;;;;;5095436;28;20040;-73
2022/05/20 10:17:07;;;;;;;9.80;3.63;;;20.30;65.80;;;;;;5095241;28;20498;-72
2022/05/20 10:19:51;;;;;;;7.93;3.27;;;20.20;63.20;;;;;;5095179;28;20488;-73
2022/05/20 10:22:23;;;;;;;7.13;3.80;;;20.20;62.70;;;;;;5094843;28;20051;-73
2022/05/20 10:24:57;;;;;;;9.60;4.20;;;20.20;63.30;;;;;;5094043;28;20059;-73
2022/05/20 10:27:51;;;;;;;8.05;3.97;;;20.20;63.70;;;;;;5094689;28;20065;-73
2022/05/20 10:33:35;;;;;;;5.70;2.97;;;20.00;61.40;;;;;;5093401;28;20056;-73
2022/05/20 10:36:19;;;;;;;7.13;3.03;;;20.20;63.90;;;;;;5094849;28;20056;-72
2022/05/20 10:39:05;;;;;;;6.97;2.60;;;20.40;62.80;;;;;;5094844;28;20055;-73
2022/05/20 10:41:45;;;;;;;6.53;3.13;;;20.40;61.30;;;;;;5094235;28;20064;-73
2022/05/20 10:51:21;;;;;;;4.70;2.10;;;20.60;56.20;;;;;;5094425;28;20070;-77
2022/05/20 10:54:03;;;;;;;6.77;2.80;;;20.70;55.20;;;;;;5085632;28;20056;-73
2022/05/20 10:56:53;;;;;;;7.47;2.97;;;20.60;54.40;;;;;;5094391;28;20078;-73
2022/05/20 10:59:39;;;;;;;8.50;3.10;;;20.60;55.70;;;;;;5094089;28;20502;-73
2022/05/20 11:02:24;;;;;;;8.03;3.10;;;20.50;57.40;;;;;;5082673;28;20052;-73
2022/05/20 11:05:27;;;;;;;7.45;2.58;;;20.60;58.10;;;;;;5094270;28;20059;-73
2022/05/20 11:08:24;;;;;;;6.60;3.70;;;20.60;53.50;;;;;;5094081;28;20040;-72
2022/05/20 11:11:17;;;;;;;6.10;3.30;;;20.60;57.50;;;;;;5093664;28;20113;-72
2022/05/20 11:14:09;;;;;;;7.77;4.20;;;20.70;59.00;;;;;;5094079;28;20044;-73
2022/05/20 11:16:54;;;;;;;7.67;3.70;;;20.70;58.80;;;;;;5093568;28;20047;-80
2022/05/20 11:19:38;;;;;;;8.75;4.60;;;20.80;58.90;;;;;;5093843;28;20070;-73
2022/05/20 11:22:50;;;;;;;6.05;3.45;;;20.80;59.60;;;;;;5093947;28;20460;-73
2022/05/20 11:25:43;;;;;;;7.50;4.33;;;21.00;61.50;;;;;;5093796;28;20048;-73
2022/05/20 11:28:15;;;;;;;9.23;5.37;;;21.10;60.60;;;;;;5093940;28;20622;-73
2022/05/20 11:31:09;;;;;;;8.17;5.10;;;21.10;60.60;;;;;;5093629;28;20052;-72
2022/05/20 11:34:16;;;;;;;11.10;5.90;;;21.10;61.40;;;;;;5092539;28;20126;-80
2022/05/20 11:37:03;;;;;;;8.23;5.17;;;20.80;61.90;;;;;;5092480;28;20058;-89
2022/05/20 11:39:57;;;;;;;9.13;4.93;;;20.70;61.60;;;;;;5092612;28;20098;-78
2022/05/20 11:42:48;;;;;;;9.00;5.20;;;20.50;62.10;;;;;;5092024;28;20048;-76
2022/05/20 11:45:41;;;;;;;7.73;4.97;;;20.60;62.90;;;;;;5093072;28;20504;-77
2022/05/20 11:48:25;;;;;;;7.67;5.03;;;20.50;57.10;;;;;;5093827;28;20047;-74
2022/05/20 11:51:12;;;;;;;7.57;4.43;;;20.40;58.60;;;;;;5093780;28;20044;-78
2022/05/20 11:53:47;;;;;;;7.83;4.40;;;20.50;56.20;;;;;;5093342;28;20051;-78
2022/05/20 11:56:30;;;;;;;6.18;3.38;;;20.50;57.00;;;;;;5075678;28;20479;-79
2022/05/20 11:59:19;;;;;;;6.87;3.23;;;20.50;51.90;;;;;;5093556;28;20510;-77
2022/05/20 12:01:48;;;;;;;6.57;4.20;;;20.50;52.20;;;;;;5085736;28;20139;-80
2022/05/20 12:04:16;;;;;;;7.33;4.17;;;20.40;53.50;;;;;;5093010;28;20056;-83
2022/05/20 12:06:47;;;;;;;8.83;3.97;;;20.40;54.00;;;;;;5093208;28;20104;-75
2022/05/20 12:09:31;;;;;;;7.87;3.77;;;20.40;54.90;;;;;;5092186;28;20488;-81
2022/05/20 12:12:14;;;;;;;6.37;3.60;;;20.50;52.70;;;;;;5093055;28;20476;-74
2022/05/20 12:14:58;;;;;;;6.77;3.40;;;20.50;53.60;;;;;;5092813;28;20078;-82
2022/05/20 12:17:36;;;;;;;6.75;4.07;;;20.50;53.20;;;;;;5091879;28;20052;-77
2022/05/20 12:26:05;;;;;;;6.20;3.53;;;20.60;54.00;;;;;;5093112;28;20052;-75
2022/05/20 12:28:34;;;;;;;7.20;4.10;;;20.70;53.70;;;;;;5092401;28;20149;-74
2022/05/20 12:31:19;;;;;;;6.27;3.60;;;20.80;54.50;;;;;;5092029;28;20043;-77
2022/05/20 12:34:00;;;;;;;6.63;4.50;;;20.80;54.20;;;;;;5092112;28;20390;-82
2022/05/20 12:36:29;;;;;;;7.10;3.67;;;20.80;55.00;;;;;;5092677;28;20040;-75
2022/05/20 12:39:06;;;;;;;8.10;4.10;;;20.80;54.60;;;;;;5092836;28;20052;-74
2022/05/20 12:41:43;;;;;;;7.23;3.77;;;20.70;53.60;;;;;;5092335;28;20105;-77
2022/05/20 12:44:15;;;;;;;7.10;3.70;;;20.80;52.50;;;;;;5093005;28;20048;-78
2022/05/20 12:46:48;;;;;;;6.50;3.67;;;20.70;52.70;;;;;;5092537;28;20045;-74
2022/05/20 12:49:14;;;;;;;6.40;3.57;;;20.70;52.70;;;;;;5092744;28;20515;-79
2022/05/20 12:51:41;;;;;;;6.50;3.53;;;20.80;53.30;;;;;;5092417;28;20036;-78
2022/05/20 12:54:15;;;;;;;5.37;2.90;;;20.80;53.30;;;;;;5091787;28;20109;-76
2022/05/20 12:56:41;;;;;;;6.85;2.88;;;20.80;51.90;;;;;;5091320;28;20086;-79
2022/05/20 12:59:22;;;;;;;6.13;3.37;;;20.80;50.30;;;;;;5071745;28;20083;-77
2022/05/20 13:01:59;;;;;;;4.63;2.53;;;20.90;50.50;;;;;;5084747;28;20044;-75
2022/05/20 13:04:28;;;;;;;5.60;2.43;;;20.80;50.00;;;;;;5090764;28;20109;-73
2022/05/20 13:06:57;;;;;;;6.97;3.10;;;20.80;51.00;;;;;;5085908;28;20040;-74
2022/05/20 13:09:40;;;;;;;7.67;3.30;;;20.70;51.70;;;;;;5090936;28;20475;-74
2022/05/20 13:12:12;;;;;;;7.40;3.60;;;20.60;51.70;;;;;;5085482;28;20040;-76
2022/05/20 13:14:38;;;;;;;6.23;3.67;;;20.50;52.40;;;;;;5090810;28;20075;-75
2022/05/20 13:17:07;;;;;;;6.67;3.07;;;20.50;53.10;;;;;;5088098;28;20495;-76
2022/05/20 13:19:52;;;;;;;5.23;2.90;;;20.40;53.40;;;;;;5089729;28;20048;-72
2022/05/20 13:22:22;;;;;;;;;;;20.40;50.90;;;;;;5089248;28;20044;-77
2022/05/20 13:24:54;;;;;;;8.03;2.87;;;20.20;51.10;;;;;;5090527;28;19924;-77
2022/05/20 13:27:21;;;;;;;5.97;3.27;;;20.20;51.80;;;;;;5090263;28;20461;-77
2022/05/20 13:29:48;;;;;;;8.50;3.23;;;20.20;52.40;;;;;;5090221;28;20457;-77
2022/05/20 13:32:31;;;;;;;6.50;3.90;;;20.10;53.10;;;;;;5090045;28;20036;-77
2022/05/20 13:35:00;;;;;;;6.33;3.17;;;20.00;53.70;;;;;;5089243;28;20048;-77
2022/05/20 13:37:36;;;;;;;7.10;3.27;;;20.00;54.30;;;;;;5089813;28;20052;-78
2022/05/20 13:40:27;;;;;;;6.97;3.43;;;19.90;56.00;;;;;;5092157;28;20101;-76
2022/05/20 13:42:55;;;;;;;8.90;4.00;;;19.90;67.90;;;;;;5084556;28;20127;-73
2022/05/20 13:49:13;;;;;;;8.03;4.13;;;19.80;69.60;;;;;;5093912;28;20119;-77
2022/05/20 13:51:11;;;;;;;11.00;5.67;;;19.60;99.90;;;;;;5094042;28;20818;-77
2022/05/20 13:53:38;;;;;;;15.13;6.93;;;19.40;99.90;;;;;;5094196;28;20040;-75
2022/05/20 13:56:12;;;;;;;11.97;6.80;;;19.30;99.90;;;;;;5092574;28;20056;-74
2022/05/20 13:58:41;;;;;;;16.63;7.67;;;19.20;99.90;;;;;;5095307;28;20059;-75